Time;durP1;ratioP1;P1;durP2;ratioP2;P2;SDS_P1;SDS_P2;PMS_P1;PMS_P2;Temp;Humidity;BMP_temperature;BMP_pressure;BME280_temperature;BME280_humidity;BME280_pressure;Samples;Min_cycle;Max_cycle;Signal;HPM_P1;HPM_P2
2022/01/27 00:01:03;;;;;;;0.40;0.40;;;;;;;9.97;100.00;102062.53;5027089;28;20408;-79
2022/01/27 00:03:34;;;;;;;0.40;0.40;;;;;;;9.98;100.00;102069.63;5025301;28;20398;-79
2022/01/27 00:06:06;;;;;;;0.50;0.50;;;;;;;9.94;100.00;102066.34;5025970;28;20037;-77
2022/01/27 00:08:46;;;;;;;0.50;0.50;;;;;;;9.97;100.00;102066.03;5009499;28;20086;-78
2022/01/27 00:11:15;;;;;;;0.50;0.50;;;;;;;9.93;100.00;102067.34;5040974;28;20106;-78
2022/01/27 00:13:56;;;;;;;0.40;0.40;;;;;;;9.97;100.00;102067.91;5028764;28;20048;-78
2022/01/27 00:16:26;;;;;;;0.50;0.50;;;;;;;9.98;100.00;102069.63;5010972;28;20031;-76
2022/01/27 00:18:53;;;;;;;0.50;0.50;;;;;;;9.97;100.00;102067.91;5041072;28;20037;-80
2022/01/27 00:21:21;;;;;;;0.40;0.40;;;;;;;9.94;100.00;102060.13;5006531;28;20029;-78
2022/01/27 00:23:47;;;;;;;0.43;0.43;;;;;;;9.95;100.00;102072.56;5013557;28;20463;-79
2022/01/27 00:26:15;;;;;;;0.50;0.50;;;;;;;9.85;100.00;102049.22;5030249;28;20474;-79
2022/01/27 00:28:41;;;;;;;0.40;0.40;;;;;;;9.97;100.00;102062.53;5029715;28;20044;-81
2022/01/27 00:31:07;;;;;;;0.50;0.50;;;;;;;9.98;100.00;102066.91;5058414;28;20087;-79
2022/01/27 00:33:33;;;;;;;0.40;0.40;;;;;;;9.97;100.00;102059.84;5034493;28;20033;-79
2022/01/27 00:35:59;;;;;;;0.50;0.50;;;;;;;9.95;100.00;102062.69;5025247;28;20040;-78
2022/01/27 00:38:27;;;;;;;0.50;0.50;;;;;;;9.94;100.00;102058.28;5011323;28;20411;-78
2022/01/27 00:40:55;;;;;;;0.50;0.50;;;;;;;9.95;100.00;102062.69;5039506;28;20500;-78
2022/01/27 00:43:21;;;;;;;0.50;0.50;;;;;;;9.86;100.00;102042.00;5023754;28;20029;-78
2022/01/27 00:45:47;;;;;;;0.50;0.50;;;;;;;9.97;100.00;102062.53;5044936;28;20025;-77
2022/01/27 00:48:15;;;;;;;0.50;0.50;;;;;;;9.95;100.00;102065.38;5040683;28;20034;-78
2022/01/27 00:50:41;;;;;;;0.50;0.50;;;;;;;9.96;100.00;102053.63;5022713;28;20072;-78
2022/01/27 00:53:22;;;;;;;0.50;0.50;;;;;;;9.96;100.00;102056.31;5025055;28;20050;-79
2022/01/27 00:55:49;;;;;;;0.40;0.40;;;;;;;9.98;100.00;102062.38;5032626;28;20749;-77
2022/01/27 00:58:36;;;;;;;0.40;0.40;;;;;;;9.99;100.00;102061.38;5042990;28;20040;-80
2022/01/27 01:01:04;;;;;;;0.50;0.50;;;;;;;10.00;100.00;102063.09;5030102;28;20102;-78
2022/01/27 01:03:35;;;;;;;0.40;0.40;;;;;;;10.05;100.00;102062.66;5029563;28;20487;-79
2022/01/27 01:11:36;;;;;;;0.50;0.50;;;;;;;10.10;100.00;102068.47;5039200;28;20040;-78
2022/01/27 01:32:17;;;;;;;0.50;0.50;;;;;;;10.23;100.00;102054.75;5052195;28;20048;-79
2022/01/27 01:34:46;;;;;;;0.50;0.50;;;;;;;10.15;100.00;102044.72;5049355;28;20060;-77
2022/01/27 01:37:12;;;;;;;0.40;0.40;;;;;;;10.20;100.00;102049.66;5030800;28;20491;-78
2022/01/27 01:39:38;;;;;;;0.50;0.50;;;;;;;10.22;100.00;102050.38;5032562;28;20094;-78
2022/01/27 01:42:07;;;;;;;0.50;0.50;;;;;;;10.22;100.00;102055.75;5018910;28;20398;-78
2022/01/27 01:44:33;;;;;;;0.50;0.50;;;;;;;10.19;100.00;102053.31;5032193;28;20043;-77
2022/01/27 01:46:59;;;;;;;0.50;0.50;;;;;;;10.17;100.00;102045.41;5028730;28;20083;-78
2022/01/27 01:49:26;;;;;;;0.40;0.40;;;;;;;10.17;100.00;102042.72;5054124;28;20029;-81
2022/01/27 01:52:02;;;;;;;0.50;0.50;;;;;;;10.20;100.00;102057.72;5024524;28;20036;-77
2022/01/27 01:54:28;;;;;;;0.50;0.50;;;;;;;10.18;100.00;102054.31;5013321;28;20454;-77
2022/01/27 01:56:56;;;;;;;0.40;0.40;;;;;;;10.12;100.00;102043.16;5021949;28;20127;-79
2022/01/27 01:59:22;;;;;;;0.40;0.40;;;;;;;10.07;100.00;102040.03;5043053;28;20029;-76
2022/01/27 02:01:48;;;;;;;0.40;0.40;;;;;;;10.15;100.00;102054.63;5058091;28;20386;-79
2022/01/27 02:04:14;;;;;;;0.40;0.40;;;;;;;10.16;100.00;102056.31;5015096;28;20033;-78
2022/01/27 02:06:50;;;;;;;0.50;0.50;;;;;;;10.15;100.00;102057.31;5034501;28;20033;-78
2022/01/27 02:19:56;;;;;;;0.40;0.40;;;;;;;10.12;100.00;102066.50;5046568;28;20037;-79
2022/01/27 02:22:23;;;;;;;0.50;0.50;;;;;;;10.11;100.00;102079.09;5025268;28;20368;-77
2022/01/27 02:24:49;;;;;;;0.50;0.50;;;;;;;10.09;100.00;102066.78;5036390;28;20048;-78
2022/01/27 02:27:15;;;;;;;0.40;0.40;;;;;;;10.11;100.00;102067.50;5040076;28;20026;-79
2022/01/27 02:29:41;;;;;;;0.40;0.40;;;;;;;10.07;100.00;102069.59;5014176;28;20466;-79
2022/01/27 02:32:07;;;;;;;0.50;0.50;;;;;;;10.08;100.00;102087.44;5014383;28;20039;-79
2022/01/27 02:34:34;;;;;;;0.50;0.50;;;;;;;10.10;100.00;102089.97;5028857;28;20045;-77
2022/01/27 02:37:00;;;;;;;0.47;0.47;;;;;;;10.08;100.00;102084.75;5035492;28;20100;-80
2022/01/27 02:39:26;;;;;;;0.50;0.50;;;;;;;10.07;100.00;102085.72;5027017;28;20036;-82
2022/01/27 02:41:54;;;;;;;0.50;0.50;;;;;;;10.09;100.00;102093.66;5041177;28;20479;-78
2022/01/27 02:44:53;;;;;;;0.52;0.52;;;;;;;10.06;100.00;102093.94;5040460;28;20029;-82
2022/01/27 02:47:20;;;;;;;0.40;0.40;;;;;;;9.95;100.00;102077.94;5024951;28;20106;-77
2022/01/27 02:49:46;;;;;;;0.50;0.50;;;;;;;10.04;100.00;102096.75;5020614;28;20041;-78
2022/01/27 02:52:11;;;;;;;0.40;0.40;;;;;;;10.05;100.00;102098.44;5037286;28;20048;-80
2022/01/27 02:54:37;;;;;;;0.40;0.40;;;;;;;10.04;100.00;102095.91;5027896;28;20042;-77
2022/01/27 02:57:03;;;;;;;0.50;0.50;;;;;;;10.03;100.00;102095.06;5056063;28;20037;-78
2022/01/27 02:59:29;;;;;;;0.50;0.50;;;;;;;10.01;100.00;102090.81;5040152;28;20044;-77
2022/01/27 03:02:01;;;;;;;0.40;0.40;;;;;;;9.69;100.00;102038.19;5034738;28;20033;-81
2022/01/27 03:04:30;;;;;;;0.40;0.40;;;;;;;9.98;100.00;102089.25;5055496;28;20033;-77
2022/01/27 03:06:56;;;;;;;0.50;0.50;;;;;;;9.97;100.00;102089.38;5039533;28;20466;-79
2022/01/27 03:09:22;;;;;;;0.50;0.50;;;;;;;9.95;100.00;102094.91;5024403;28;20036;-78
2022/01/27 03:11:51;;;;;;;0.40;0.40;;;;;;;9.95;100.00;102094.03;5022255;28;20037;-77
2022/01/27 03:14:20;;;;;;;0.40;0.40;;;;;;;9.93;100.00;102082.63;5047195;28;20183;-79
2022/01/27 03:16:49;;;;;;;0.50;0.50;;;;;;;9.90;100.00;102083.75;5044648;28;20067;-79
2022/01/27 03:19:15;;;;;;;0.47;0.47;;;;;;;9.90;100.00;102095.31;5059070;28;20571;-80
2022/01/27 03:21:43;;;;;;;0.50;0.50;;;;;;;9.90;100.00;102106.06;5009296;28;20479;-80
2022/01/27 03:24:10;;;;;;;0.40;0.40;;;;;;;9.90;100.00;102111.44;5027920;28;20068;-78
2022/01/27 03:26:35;;;;;;;0.50;0.50;;;;;;;9.83;100.00;102098.69;5006603;28;20033;-80
2022/01/27 03:29:01;;;;;;;0.40;0.40;;;;;;;9.87;100.00;102106.34;5040199;28;20024;-77
2022/01/27 03:31:27;;;;;;;0.52;0.52;;;;;;;9.86;100.00;102106.47;5040562;28;20196;-79
2022/01/27 03:33:53;;;;;;;0.50;0.50;;;;;;;9.89;100.00;102100.81;5023882;28;20082;-78
2022/01/27 03:36:19;;;;;;;0.50;0.50;;;;;;;9.87;100.00;102105.47;5067074;28;20074;-77
2022/01/27 03:38:45;;;;;;;0.43;0.43;;;;;;;9.86;100.00;102095.75;5011834;28;20036;-77
2022/01/27 03:41:11;;;;;;;0.50;0.50;;;;;;;9.86;100.00;102087.69;5023405;28;20490;-78
2022/01/27 03:43:38;;;;;;;0.52;0.52;;;;;;;9.84;100.00;102090.53;5043021;28;20029;-77
2022/01/27 03:46:05;;;;;;;0.90;0.50;;;;;;;9.83;100.00;102102.22;5038438;28;20037;-81
2022/01/27 03:48:31;;;;;;;0.52;0.52;;;;;;;9.72;100.00;102071.97;5046056;28;20037;-78
2022/01/27 03:50:57;;;;;;;0.50;0.50;;;;;;;9.78;100.00;102090.22;5014920;28;20043;-77
2022/01/27 03:53:23;;;;;;;0.40;0.40;;;;;;;9.76;100.00;102089.50;5037711;28;20386;-80
2022/01/27 03:55:49;;;;;;;0.50;0.50;;;;;;;9.78;100.00;102103.63;5037219;28;20410;-77
2022/01/27 03:58:14;;;;;;;0.50;0.50;;;;;;;9.74;100.00;102095.00;5030415;28;20029;-78
2022/01/27 04:00:40;;;;;;;0.40;0.40;;;;;;;9.73;100.00;102093.28;5038921;28;20522;-77
2022/01/27 04:03:09;;;;;;;0.50;0.50;;;;;;;9.72;100.00;102086.25;5047669;28;20120;-77
2022/01/27 04:05:42;;;;;;;0.50;0.50;;;;;;;9.69;100.00;102103.47;5034179;28;20041;-77
2022/01/27 04:08:10;;;;;;;0.50;0.50;;;;;;;9.57;100.00;102098.34;5016348;28;20045;-77
2022/01/27 04:10:36;;;;;;;0.55;0.55;;;;;;;9.65;100.00;102112.78;5049407;28;20040;-77
2022/01/27 04:13:03;;;;;;;0.50;0.50;;;;;;;9.63;100.00;102108.53;5053371;28;20288;-77
2022/01/27 04:15:29;;;;;;;0.50;0.50;;;;;;;9.60;100.00;102106.97;5019470;28;20106;-78
2022/01/27 04:17:54;;;;;;;0.60;0.60;;;;;;;9.59;100.00;102113.34;5024327;28;20417;-78
2022/01/27 04:20:20;;;;;;;0.77;0.50;;;;;;;9.57;100.00;102115.31;5056511;28;20052;-77
2022/01/27 04:22:46;;;;;;;0.50;0.50;;;;;;;9.53;100.00;102113.03;5017217;28;20296;-77
2022/01/27 04:25:13;;;;;;;0.50;0.50;;;;;;;9.51;100.00;102121.22;5033288;28;20036;-76
2022/01/27 04:27:43;;;;;;;0.52;0.52;;;;;;;9.36;100.00;102098.41;5060872;28;20086;-77
2022/01/27 04:30:16;;;;;;;0.50;0.50;;;;;;;9.42;100.00;102125.56;5030074;28;20479;-77
2022/01/27 04:33:03;;;;;;;0.50;0.50;;;;;;;9.40;100.00;102126.69;5050985;28;20075;-76
2022/01/27 04:35:33;;;;;;;0.50;0.50;;;;;;;9.38;100.00;102123.28;5027463;28;20029;-77
2022/01/27 04:38:16;;;;;;;0.50;0.50;;;;;;;9.39;100.00;102136.59;5049063;28;20541;-79
2022/01/27 04:48:23;;;;;;;0.50;0.50;;;;;;;9.37;100.00;102143.91;5040171;28;20037;-78
2022/01/27 04:50:51;;;;;;;0.50;0.50;;;;;;;9.32;100.00;102137.25;5030170;28;20381;-79
2022/01/27 04:53:23;;;;;;;0.50;0.50;;;;;;;9.28;100.00;102133.13;5035032;28;20045;-77
2022/01/27 04:55:49;;;;;;;0.57;0.50;;;;;;;9.19;100.00;102124.91;5057515;28;20538;-77
2022/01/27 04:58:26;;;;;;;0.50;0.50;;;;;;;9.19;100.00;102132.09;5066435;28;20112;-77
2022/01/27 05:00:52;;;;;;;0.50;0.50;;;;;;;9.21;100.00;102141.72;5020084;28;20040;-81
2022/01/27 05:03:32;;;;;;;0.47;0.47;;;;;;;9.21;100.00;102141.72;5026441;28;20060;-77
2022/01/27 05:05:58;;;;;;;0.40;0.40;;;;;;;9.18;100.00;102142.00;5032222;28;20025;-77
2022/01/27 05:08:24;;;;;;;0.50;0.50;;;;;;;9.20;100.00;102142.69;5022017;28;20094;-78
2022/01/27 05:10:58;;;;;;;0.50;0.50;;;;;;;9.20;100.00;102137.31;5032266;28;20479;-78
2022/01/27 05:13:26;;;;;;;;;;;;;;;9.17;100.00;102148.31;5024821;28;20029;-78
2022/01/27 05:15:52;;;;;;;0.50;0.50;;;;;;;9.11;100.00;102151.53;5033490;28;19952;-78
2022/01/27 05:18:19;;;;;;;0.50;0.50;;;;;;;9.09;100.00;102153.50;5048969;28;20090;-77
2022/01/27 05:20:45;;;;;;;0.40;0.40;;;;;;;9.01;100.00;102148.78;5059763;28;20028;-77
2022/01/27 05:23:11;;;;;;;0.40;0.40;;;;;;;9.07;100.00;102163.50;5034613;28;20039;-77
2022/01/27 05:25:36;;;;;;;0.50;0.50;;;;;;;9.06;100.00;102163.66;5047887;28;20322;-77
2022/01/27 05:28:02;;;;;;;0.40;0.40;;;;;;;8.98;100.00;102153.59;5034562;28;20063;-77
2022/01/27 05:30:28;;;;;;;0.50;0.50;;;;;;;8.86;100.00;102135.84;5023012;28;20090;-77
2022/01/27 05:32:54;;;;;;;0.50;0.50;;;;;;;8.98;100.00;102161.63;5060321;28;20028;-78
2022/01/27 05:35:22;;;;;;;0.50;0.50;;;;;;;8.93;100.00;102156.66;5013291;28;20450;-77
2022/01/27 05:37:50;;;;;;;0.40;0.40;;;;;;;8.92;100.00;102163.00;5038147;28;20033;-77
2022/01/27 05:40:16;;;;;;;0.50;0.50;;;;;;;8.88;100.00;102161.56;5014784;28;20040;-77
2022/01/27 05:42:41;;;;;;;0.50;0.50;;;;;;;8.88;100.00;102161.56;5050109;28;20490;-76
2022/01/27 05:45:08;;;;;;;0.40;0.40;;;;;;;8.87;100.00;102156.34;5005455;28;20029;-78
2022/01/27 05:47:33;;;;;;;0.50;0.50;;;;;;;8.83;100.00;102153.03;5029309;28;20028;-80
2022/01/27 05:50:01;;;;;;;0.40;0.40;;;;;;;8.82;100.00;102153.19;5055749;28;20096;-77
2022/01/27 05:52:27;;;;;;;0.50;0.50;;;;;;;8.77;100.00;102153.56;5011202;28;20037;-77
2022/01/27 05:54:53;;;;;;;0.50;0.50;;;;;;;8.77;100.00;102156.25;5015951;28;20032;-79
2022/01/27 05:57:18;;;;;;;0.50;0.50;;;;;;;8.78;100.00;102169.50;5023875;28;20554;-77
2022/01/27 05:59:44;;;;;;;0.50;0.50;;;;;;;8.78;100.00;102176.72;5021636;28;20029;-78
2022/01/27 06:02:10;;;;;;;0.40;0.40;;;;;;;8.68;100.00;102165.94;5057403;28;20075;-78
2022/01/27 06:04:35;;;;;;;0.45;0.45;;;;;;;8.74;100.00;102181.50;5016943;28;20029;-77
2022/01/27 06:07:01;;;;;;;0.50;0.50;;;;;;;8.70;100.00;102179.19;5044786;28;20045;-77
2022/01/27 06:09:27;;;;;;;0.73;0.65;;;;;;;8.67;100.00;102177.63;5012086;28;20029;-77
2022/01/27 06:11:52;;;;;;;0.90;0.60;;;;;;;8.61;100.00;102170.09;5040167;28;20037;-77
2022/01/27 06:14:18;;;;;;;0.40;0.40;;;;;;;8.50;100.00;102172.84;5050315;28;20029;-77
2022/01/27 06:16:45;;;;;;;0.50;0.50;;;;;;;8.29;100.00;102176.28;5013108;28;20405;-78
2022/01/27 06:19:11;;;;;;;0.40;0.40;;;;;;;8.16;100.00;102170.22;5034200;28;20123;-78
2022/01/27 06:21:37;;;;;;;1.10;0.70;;;;;;;8.00;100.00;102172.44;5011972;28;20043;-82
2022/01/27 06:24:03;;;;;;;0.40;0.40;;;;;;;7.93;100.00;102190.81;5029073;28;20024;-78
2022/01/27 06:26:29;;;;;;;0.50;0.50;;;;;;;7.91;100.00;102187.41;5038185;28;20033;-78
2022/01/27 06:28:56;;;;;;;0.50;0.50;;;;;;;7.88;100.00;102193.03;5037257;28;20038;-77
2022/01/27 06:31:22;;;;;;;0.50;0.50;;;;;;;7.93;100.00;102191.66;5027356;28;20102;-79
2022/01/27 06:33:48;;;;;;;0.40;0.40;;;;;;;8.00;100.00;102199.22;5025470;28;20040;-78
2022/01/27 06:36:14;;;;;;;0.50;0.50;;;;;;;8.10;100.00;102213.59;5018778;28;20385;-80
2022/01/27 06:38:39;;;;;;;0.40;0.40;;;;;;;8.08;100.00;102205.66;5061547;28;20036;-79
2022/01/27 06:41:05;;;;;;;0.50;0.50;;;;;;;8.16;100.00;102226.47;5067474;28;20027;-78
2022/01/27 06:43:30;;;;;;;0.50;0.50;;;;;;;8.18;100.00;102232.56;5027569;28;20045;-81
2022/01/27 06:45:56;;;;;;;0.40;0.40;;;;;;;8.18;100.00;102227.22;5050339;28;20039;-78
2022/01/27 06:48:24;;;;;;;0.50;0.50;;;;;;;8.16;100.00;102234.53;5007956;28;20029;-77
2022/01/27 06:50:54;;;;;;;0.50;0.50;;;;;;;8.20;100.00;102246.69;5056910;28;20630;-79
2022/01/27 06:53:20;;;;;;;0.40;0.40;;;;;;;8.11;100.00;102228.69;5074591;28;20487;-77
2022/01/27 06:55:47;;;;;;;0.50;0.50;;;;;;;8.21;100.00;102256.44;5012981;28;20128;-78
2022/01/27 06:58:13;;;;;;;0.50;0.50;;;;;;;8.18;100.00;102245.97;5029729;28;20041;-79
2022/01/27 07:00:38;;;;;;;0.50;0.50;;;;;;;8.29;100.00;102271.91;5039471;28;20471;-77
2022/01/27 07:03:04;;;;;;;0.40;0.40;;;;;;;8.28;100.00;102273.75;5029921;28;20037;-78
2022/01/27 07:05:32;;;;;;;0.50;0.50;;;;;;;8.25;100.00;102271.28;5033841;28;20087;-79
2022/01/27 07:07:58;;;;;;;0.40;0.40;;;;;;;8.28;100.00;102287.13;5038839;28;20116;-78
2022/01/27 07:10:24;;;;;;;0.52;0.52;;;;;;;8.24;100.00;102280.31;5059906;28;20453;-78
2022/01/27 07:12:49;;;;;;;0.40;0.40;;;;;;;8.26;100.00;102272.16;5029686;28;20383;-77
2022/01/27 07:15:15;;;;;;;0.40;0.40;;;;;;;8.28;100.00;102289.81;5031733;28;20029;-78
2022/01/27 07:17:41;;;;;;;0.40;0.40;;;;;;;8.26;100.00;102283.72;5019245;28;20107;-78
2022/01/27 07:20:08;;;;;;;0.50;0.50;;;;;;;8.32;100.00;102290.41;5034533;28;20029;-77
2022/01/27 07:22:35;;;;;;;0.40;0.40;;;;;;;8.27;100.00;102289.94;5039112;28;20021;-79
2022/01/27 07:25:01;;;;;;;0.50;0.50;;;;;;;8.32;100.00;102301.97;5005473;28;20483;-80
2022/01/27 07:27:27;;;;;;;0.50;0.50;;;;;;;8.32;100.00;102307.34;5026728;28;20418;-82
2022/01/27 07:29:52;;;;;;;0.50;0.50;;;;;;;8.32;100.00;102310.03;5031389;28;20041;-77
2022/01/27 07:32:18;;;;;;;0.50;0.50;;;;;;;8.33;100.00;102305.50;5032112;28;20094;-78
2022/01/27 07:34:44;;;;;;;0.50;0.50;;;;;;;8.31;100.00;102313.69;5024091;28;20037;-80
2022/01/27 07:37:11;;;;;;;0.50;0.50;;;;;;;8.32;100.00;102317.22;5024131;28;20082;-79
2022/01/27 07:39:37;;;;;;;0.50;0.50;;;;;;;8.27;100.00;102317.56;5014986;28;20128;-79
2022/01/27 07:42:06;;;;;;;0.45;0.45;;;;;;;8.26;100.00;102329.28;5055085;28;20128;-77
2022/01/27 07:44:40;;;;;;;0.50;0.50;;;;;;;8.20;100.00;102320.84;5018469;28;20505;-77
2022/01/27 07:47:12;;;;;;;0.50;0.50;;;;;;;8.03;100.00;102322.22;5052056;28;20072;-76
2022/01/27 07:49:37;;;;;;;0.40;0.40;;;;;;;7.94;100.00;102347.91;5035260;28;20029;-79
2022/01/27 07:52:03;;;;;;;0.40;0.40;;;;;;;7.55;100.00;102293.78;5019658;28;20390;-78
2022/01/27 07:54:29;;;;;;;0.50;0.50;;;;;;;7.79;100.00;102347.25;5016426;28;20071;-77
2022/01/27 07:56:54;;;;;;;0.50;0.50;;;;;;;7.66;100.00;102349.16;5014601;28;20071;-78
2022/01/27 07:59:20;;;;;;;0.50;0.50;;;;;;;7.45;100.00;102352.50;5017947;28;20190;-78
2022/01/27 08:01:48;;;;;;;0.40;0.40;;;;;;;7.32;100.00;102361.59;5037820;28;20048;-78
2022/01/27 08:04:16;;;;;;;0.50;0.50;;;;;;;7.24;100.00;102354.13;5024205;28;20044;-78
2022/01/27 08:06:42;;;;;;;0.50;0.50;;;;;;;7.19;100.00;102345.59;5036256;28;20389;-80
2022/01/27 08:09:08;;;;;;;0.50;0.50;;;;;;;7.11;100.00;102353.34;5021433;28;20116;-80
2022/01/27 08:11:36;;;;;;;0.50;0.50;;;;;;;7.19;100.00;102369.66;5033824;28;20448;-78
2022/01/27 08:14:02;;;;;;;0.50;0.50;;;;;;;7.17;100.00;102374.28;5035113;28;20033;-79
2022/01/27 08:16:30;;;;;;;0.50;0.50;;;;;;;7.15;100.00;102378.91;5017534;28;20036;-79
2022/01/27 08:18:56;;;;;;;0.50;0.50;;;;;;;6.93;100.00;102369.78;5038095;28;20033;-77
2022/01/27 08:21:22;;;;;;;0.43;0.43;;;;;;;6.85;100.00;102390.84;5033701;28;20131;-78
2022/01/27 08:23:51;;;;;;;0.50;0.50;;;;;;;6.82;100.00;102388.41;5013646;28;20049;-78
2022/01/27 08:26:28;;;;;;;0.50;0.50;;;;;;;6.84;100.00;102381.16;5016591;28;20036;-78
2022/01/27 08:29:07;;;;;;;0.50;0.50;;;;;;;6.95;100.00;102383.88;5015283;28;20103;-78
2022/01/27 08:31:42;;;;;;;0.50;0.50;;;;;;;7.05;100.00;102394.78;5018428;28;20059;-80
2022/01/27 08:34:14;;;;;;;0.40;0.40;;;;;;;6.97;100.00;102389.97;5050733;28;20037;-76
2022/01/27 08:36:41;;;;;;;0.50;0.50;;;;;;;6.87;100.00;102413.00;5048204;28;20473;-81
2022/01/27 08:39:07;;;;;;;0.50;0.50;;;;;;;6.73;100.00;102397.13;5044396;28;20044;-77
2022/01/27 08:41:34;;;;;;;0.50;0.50;;;;;;;6.75;100.00;102417.44;5016863;28;20036;-82
2022/01/27 08:43:59;;;;;;;0.57;0.57;;;;;;;6.78;100.00;102419.88;5048244;28;20049;-77
2022/01/27 08:46:25;;;;;;;0.50;0.50;;;;;;;6.84;100.00;102429.28;5046013;28;20025;-78
2022/01/27 08:48:50;;;;;;;0.50;0.50;;;;;;;6.96;100.00;102433.75;5023866;28;20037;-77
2022/01/27 08:51:30;;;;;;;0.50;0.50;;;;;;;7.02;100.00;102425.25;5045466;28;20044;-76
2022/01/27 08:53:59;;;;;;;0.50;0.50;;;;;;;7.02;100.00;102405.69;5049340;28;20029;-77
2022/01/27 08:56:25;;;;;;;0.50;0.50;;;;;;;7.02;100.00;102417.25;5026705;28;20453;-76
2022/01/27 08:58:51;;;;;;;1.40;1.40;;;;;;;7.20;100.00;102448.97;5018390;28;20037;-76
2022/01/27 09:01:17;;;;;;;0.50;0.50;;;;;;;7.29;100.00;102439.41;5014248;28;20049;-77
2022/01/27 09:03:45;;;;;;;0.50;0.50;;;;;;;7.50;100.00;102445.84;5017566;28;20029;-80
2022/01/27 09:06:11;;;;;;;0.50;0.50;;;;;;;7.53;100.00;102450.13;5032477;28;20385;-79
2022/01/27 09:08:36;;;;;;;0.50;0.50;;;;;;;7.60;100.00;102454.91;5016506;28;20045;-76
2022/01/27 09:11:02;;;;;;;0.50;0.50;;;;;;;7.93;100.00;102446.13;5025769;28;20067;-76
2022/01/27 09:13:27;;;;;;;0.50;0.50;;;;;;;8.01;100.00;102447.38;5030280;28;20124;-76
2022/01/27 09:15:58;;;;;;;0.50;0.50;;;;;;;8.31;100.00;102442.31;5010615;28;20075;-82
2022/01/27 09:18:26;;;;;;;0.40;0.40;;;;;;;8.47;100.00;102458.09;5031438;28;20034;-76
2022/01/27 09:20:52;;;;;;;0.50;0.50;;;;;;;8.47;100.00;102455.41;5040018;28;20390;-77
2022/01/27 09:23:18;;;;;;;0.50;0.50;;;;;;;8.48;100.00;102461.63;5008061;28;20045;-76
2022/01/27 09:25:47;;;;;;;0.50;0.50;;;;;;;8.57;100.00;102453.72;5051132;28;20159;-77
2022/01/27 09:28:14;;;;;;;0.50;0.50;;;;;;;8.84;100.00;102465.03;5039144;28;20387;-79
2022/01/27 09:30:43;;;;;;;0.50;0.50;;;;;;;8.98;100.00;102459.44;5016348;28;20041;-82
2022/01/27 09:33:15;;;;;;;0.50;0.50;;;;;;;8.89;100.00;102465.50;5024303;28;20040;-81
2022/01/27 09:35:40;;;;;;;0.50;0.50;;;;;;;9.30;100.00;102483.66;5045310;28;20036;-76
2022/01/27 09:38:06;;;;;;;0.50;0.50;;;;;;;9.56;100.00;102489.56;5013405;28;20040;-79
2022/01/27 09:40:34;;;;;;;0.50;0.50;;;;;;;9.72;100.00;102482.94;5059772;28;20479;-78
2022/01/27 09:43:02;;;;;;;0.70;0.70;;;;;;;10.62;100.00;102479.75;5049349;28;20044;-75
2022/01/27 09:45:29;;;;;;;0.60;0.60;;;;;;;12.60;100.00;102480.53;5038725;28;20450;-82
2022/01/27 09:48:02;;;;;;;0.63;0.63;;;;;;;12.20;100.00;102487.88;5059649;28;20025;-76
2022/01/27 09:51:11;;;;;;;0.53;0.53;;;;;;;11.44;100.00;102502.00;5055051;28;20105;-79
2022/01/27 09:53:19;;;;;;;0.43;0.43;;;;;;;10.47;100.00;102504.28;5055062;28;20059;-79
2022/01/27 09:55:45;;;;;;;0.50;0.50;;;;;;;9.89;100.00;102502.00;5067839;28;20075;-80
2022/01/27 09:58:11;;;;;;;0.50;0.50;;;;;;;9.59;100.00;102500.06;5060241;28;20118;-80
2022/01/27 10:00:37;;;;;;;0.50;0.50;;;;;;;9.33;100.00;102483.38;5034018;28;20690;-79
2022/01/27 10:03:08;;;;;;;0.50;0.50;;;;;;;9.36;100.00;102495.72;5051747;28;20442;-80
2022/01/27 10:05:34;;;;;;;0.50;0.50;;;;;;;9.88;100.00;102500.31;5021233;28;20051;-84
2022/01/27 10:08:10;;;;;;;0.80;0.80;;;;;;;12.13;100.00;102507.47;5052463;28;20029;-80
2022/01/27 10:10:38;;;;;;;0.50;0.50;;;;;;;13.05;98.13;102501.38;5050879;28;20032;-80
2022/01/27 10:13:06;;;;;;;0.90;0.90;;;;;;;12.55;100.00;102513.34;5015581;28;20025;-80
2022/01/27 10:15:37;;;;;;;0.70;0.70;;;;;;;13.95;95.46;102514.03;5040240;28;20037;-82
2022/01/27 10:18:07;;;;;;;0.80;0.80;;;;;;;16.16;86.51;102523.22;5014147;28;20450;-79
2022/01/27 10:20:34;;;;;;;0.70;0.70;;;;;;;15.81;85.74;102503.53;5067301;28;20502;-80
2022/01/27 10:23:17;;;;;;;0.90;0.90;;;;;;;17.38;81.65;102529.41;5070257;28;20051;-83
2022/01/27 10:25:47;;;;;;;0.60;0.60;;;;;;;17.76;79.09;102516.78;5057228;28;20040;-80
2022/01/27 10:31:00;;;;;;;0.52;0.52;;;;;;;15.53;85.53;102559.03;5033280;28;20025;-80
2022/01/27 10:33:27;;;;;;;0.50;0.50;;;;;;;14.02;90.51;102555.66;5033447;28;20051;-78
2022/01/27 10:35:54;;;;;;;0.50;0.50;;;;;;;13.03;97.76;102552.00;5033876;28;20036;-83
2022/01/27 10:38:23;;;;;;;0.50;0.50;;;;;;;12.23;100.00;102555.00;5017600;28;20608;-77
2022/01/27 10:40:51;;;;;;;0.57;0.57;;;;;;;11.82;100.00;102570.41;5035251;28;20040;-78
2022/01/27 10:43:23;;;;;;;0.60;0.60;;;;;;;11.69;100.00;102569.81;5028117;28;20034;-78
2022/01/27 10:45:59;;;;;;;0.60;0.60;;;;;;;12.40;100.00;102577.69;5028907;28;20033;-80
2022/01/27 10:48:28;;;;;;;1.00;1.00;;;;;;;14.47;96.97;102565.56;5058670;28;20029;-78
2022/01/27 10:51:08;;;;;;;0.90;0.90;;;;;;;17.38;82.02;102578.34;5026141;28;20491;-78
2022/01/27 10:53:44;;;;;;;0.88;0.88;;;;;;;18.22;80.41;102563.06;5047859;28;20044;-82
2022/01/27 10:56:15;;;;;;;0.55;0.55;;;;;;;17.60;80.42;102582.16;5035331;28;20094;-82
2022/01/27 10:58:42;;;;;;;0.60;0.60;;;;;;;15.52;87.54;102587.16;5015195;28;20506;-80
2022/01/27 11:01:07;;;;;;;0.60;0.60;;;;;;;14.95;90.07;102587.72;5007462;28;20029;-78
2022/01/27 11:03:35;;;;;;;0.88;0.88;;;;;;;17.11;83.87;102598.66;5049828;28;20040;-78
2022/01/27 11:06:08;;;;;;;0.52;0.52;;;;;;;16.90;80.55;102591.91;5017615;28;20107;-79
2022/01/27 11:08:34;;;;;;;0.60;0.60;;;;;;;14.69;87.95;102557.97;5016383;28;20041;-79
2022/01/27 11:11:02;;;;;;;1.65;0.88;;;;;;;16.36;81.56;102593.47;5028022;28;20041;-78
2022/01/27 11:13:30;;;;;;;1.42;0.70;;;;;;;17.07;78.73;102570.16;5050460;28;20120;-77
2022/01/27 11:16:01;;;;;;;1.08;1.08;;;;;;;17.47;77.13;102588.16;5034645;28;20033;-78
2022/01/27 11:18:28;;;;;;;1.00;1.00;;;;;;;16.45;80.28;102608.72;5016090;28;20037;-78
2022/01/27 11:21:05;;;;;;;0.60;0.60;;;;;;;14.52;85.89;102594.84;5051619;28;20040;-83
2022/01/27 11:26:07;;;;;;;0.88;0.88;;;;;;;14.36;88.69;102600.97;5054827;28;20043;-79
2022/01/27 11:28:33;;;;;;;0.60;0.60;;;;;;;14.79;86.96;102593.91;5029536;28;20122;-80
2022/01/27 11:31:03;;;;;;;0.63;0.63;;;;;;;13.64;89.77;102600.06;5016664;28;20036;-80
2022/01/27 11:33:34;;;;;;;0.60;0.60;;;;;;;12.12;97.27;102597.41;5058656;28;20032;-80
2022/01/27 11:36:11;;;;;;;0.60;0.60;;;;;;;11.75;100.00;102596.22;5050047;28;20132;-80
2022/01/27 11:38:42;;;;;;;0.50;0.50;;;;;;;11.30;100.00;102595.78;5025266;28;20348;-81
2022/01/27 11:41:50;;;;;;;6.28;0.98;;;;;;;10.46;100.00;102603.94;5042143;28;20033;-80
2022/01/27 11:44:25;;;;;;;1.75;0.93;;;;;;;9.80;100.00;102607.56;5036696;28;20049;-86
2022/01/27 11:50:05;;;;;;;0.80;0.80;;;;;;;12.42;98.53;102618.03;5051383;28;20095;-79
2022/01/27 11:52:47;;;;;;;0.60;0.60;;;;;;;13.86;92.08;102617.72;5042913;28;20079;-85
2022/01/27 11:55:25;;;;;;;0.95;0.85;;;;;;;14.38;90.54;102626.03;5047098;28;20025;-81
2022/01/27 11:57:53;;;;;;;0.95;0.95;;;;;;;14.61;88.89;102623.72;5054465;28;20036;-82
2022/01/27 12:00:24;;;;;;;5.28;1.33;;;;;;;16.30;81.98;102632.13;5016966;28;20041;-81
2022/01/27 12:02:56;;;;;;;1.38;1.13;;;;;;;17.76;78.31;102635.66;5021706;28;20043;-81
2022/01/27 12:05:26;;;;;;;4.30;1.25;;;;;;;18.54;74.03;102633.78;5050001;28;20076;-85
2022/01/27 12:08:14;;;;;;;2.35;0.85;;;;;;;16.89;83.70;102646.44;5015399;28;20052;-84
2022/01/27 12:10:40;;;;;;;1.13;0.75;;;;;;;17.69;78.12;102634.66;5048902;28;20552;-80
2022/01/27 12:13:42;;;;;;;1.42;1.00;;;;;;;15.41;82.53;102601.88;5062965;28;20167;-87
2022/01/27 12:16:57;;;;;;;2.17;0.77;;;;;;;13.57;91.64;102631.41;5053950;28;20085;-81
2022/01/27 12:19:08;;;;;;;0.90;0.80;;;;;;;12.39;99.60;102632.66;5064655;28;20079;-80
2022/01/27 12:21:44;;;;;;;1.65;1.10;;;;;;;11.82;100.00;102621.59;5036619;28;20107;-80